Time;durP1;ratioP1;P1;durP2;ratioP2;P2;SDS_P1;SDS_P2;PMS_P1;PMS_P2;Temp;Humidity;BMP_temperature;BMP_pressure;BME280_temperature;BME280_humidity;BME280_pressure;Samples;Min_cycle;Max_cycle;Signal;HPM_P1;HPM_P2
2023/03/28 00:01:06;;;;;;;2.28;0.55;;;16.70;56.30;;;;;;5109682;27;45138;-74
2023/03/28 00:03:35;;;;;;;2.03;0.65;;;16.70;56.70;;;;;;5109901;27;45153;-75
2023/03/28 00:06:04;;;;;;;2.15;0.60;;;16.70;56.50;;;;;;5109779;27;45124;-74
2023/03/28 00:08:31;;;;;;;2.97;0.82;;;16.80;56.80;;;;;;5109432;27;47865;-74
2023/03/28 00:11:05;;;;;;;2.60;0.65;;;16.80;56.40;;;;;;5109202;27;45366;-74
2023/03/28 00:13:32;;;;;;;1.13;0.47;;;16.80;56.60;;;;;;5109495;27;45158;-74
2023/03/28 00:16:04;;;;;;;1.45;0.60;;;16.80;56.60;;;;;;5109331;27;45208;-74
2023/03/28 00:18:36;;;;;;;2.67;0.70;;;16.80;56.30;;;;;;5109039;27;47014;-75
2023/03/28 00:21:03;;;;;;;1.17;0.50;;;16.80;55.90;;;;;;5109362;27;45292;-74
2023/03/28 00:23:32;;;;;;;1.98;0.70;;;16.80;55.90;;;;;;5108862;27;45127;-74
2023/03/28 00:26:06;;;;;;;1.05;0.68;;;16.70;55.60;;;;;;5109130;27;45576;-74
2023/03/28 00:28:34;;;;;;;1.83;0.60;;;16.70;55.40;;;;;;5109211;27;45424;-74
2023/03/28 00:31:04;;;;;;;1.13;0.50;;;16.70;55.30;;;;;;5111864;27;45279;-74
2023/03/28 00:33:31;;;;;;;2.70;0.70;;;16.70;55.30;;;;;;5109234;27;45139;-74
2023/03/28 00:35:58;;;;;;;1.80;0.65;;;16.70;55.10;;;;;;5109127;27;45149;-74
2023/03/28 00:38:26;;;;;;;0.85;0.40;;;16.70;54.90;;;;;;5108573;27;45823;-74
2023/03/28 00:40:54;;;;;;;2.70;0.60;;;16.70;55.20;;;;;;5108819;27;45126;-74
2023/03/28 00:43:39;;;;;;;1.52;0.55;;;16.70;55.10;;;;;;5108681;27;45153;-74
2023/03/28 00:46:13;;;;;;;0.77;0.45;;;16.70;55.00;;;;;;5109136;27;45223;-74
2023/03/28 00:48:46;;;;;;;2.42;0.55;;;16.70;55.10;;;;;;5105900;27;46487;-75
2023/03/28 00:51:13;;;;;;;2.65;0.77;;;16.70;55.50;;;;;;5108835;27;45204;-74
2023/03/28 00:53:42;;;;;;;0.70;0.50;;;16.70;55.70;;;;;;5108568;27;45223;-74
2023/03/28 00:56:11;;;;;;;0.80;0.50;;;16.80;55.40;;;;;;5108708;27;45220;-74
2023/03/28 00:58:43;;;;;;;1.50;0.70;;;16.70;55.60;;;;;;5108326;27;46610;-74
2023/03/28 01:01:14;;;;;;;2.75;0.73;;;16.70;55.70;;;;;;5108515;27;46281;-74
2023/03/28 01:03:45;;;;;;;3.35;1.00;;;16.70;57.00;;;;;;5109399;27;45068;-74
2023/03/28 01:06:14;;;;;;;1.85;0.77;;;16.70;55.50;;;;;;5109266;27;45134;-74
2023/03/28 01:08:43;;;;;;;2.60;0.70;;;16.80;55.10;;;;;;5108487;27;45453;-74
2023/03/28 01:11:12;;;;;;;1.50;0.50;;;16.70;55.00;;;;;;5108105;27;46836;-74
2023/03/28 01:13:43;;;;;;;1.40;0.60;;;16.70;54.90;;;;;;5108255;27;45103;-74
2023/03/28 01:16:13;;;;;;;2.17;0.50;;;16.70;54.70;;;;;;5108943;27;45296;-74
2023/03/28 01:18:41;;;;;;;2.33;0.57;;;16.70;54.60;;;;;;5108216;27;47318;-74
2023/03/28 01:21:53;;;;;;;1.73;0.43;;;16.70;54.50;;;;;;5108164;27;45443;-74
2023/03/28 01:25:04;;;;;;;2.28;0.52;;;16.70;54.40;;;;;;5091016;27;45302;-74
2023/03/28 01:27:40;;;;;;;1.63;0.52;;;16.70;54.40;;;;;;5108253;27;45427;-74
2023/03/28 01:30:42;;;;;;;3.13;0.60;;;16.70;54.60;;;;;;5108074;27;48150;-74
2023/03/28 01:33:51;;;;;;;2.03;0.60;;;16.70;54.80;;;;;;5107770;27;45383;-74
2023/03/28 01:36:58;;;;;;;1.67;0.50;;;16.70;54.40;;;;;;5108097;27;45208;-74
2023/03/28 01:39:35;;;;;;;2.53;0.70;;;16.70;54.60;;;;;;5107988;27;45230;-74
2023/03/28 01:42:11;;;;;;;1.05;0.65;;;16.70;54.80;;;;;;5104821;27;45186;-74
2023/03/28 01:44:44;;;;;;;1.52;0.52;;;16.70;54.40;;;;;;5107958;27;45291;-74
2023/03/28 01:47:16;;;;;;;2.42;0.60;;;16.70;54.70;;;;;;5107853;27;45252;-74
2023/03/28 01:49:47;;;;;;;2.13;0.90;;;16.70;54.80;;;;;;5108191;27;45237;-74
2023/03/28 01:52:20;;;;;;;1.58;0.68;;;16.70;54.70;;;;;;5107902;27;45399;-74
2023/03/28 01:54:57;;;;;;;2.33;0.68;;;16.70;54.00;;;;;;5107992;27;45225;-74
2023/03/28 01:57:30;;;;;;;1.27;0.50;;;16.70;53.50;;;;;;5107911;27;45249;-74
2023/03/28 02:00:10;;;;;;;1.23;0.55;;;16.70;53.30;;;;;;5104632;27;45225;-74
2023/03/28 02:02:40;;;;;;;2.08;0.88;;;16.70;53.20;;;;;;5106771;27;46435;-74
2023/03/28 02:05:11;;;;;;;2.75;0.60;;;16.70;53.00;;;;;;5106754;27;45247;-74
2023/03/28 02:07:42;;;;;;;2.67;0.90;;;16.70;53.30;;;;;;5107764;27;45153;-74
2023/03/28 02:10:11;;;;;;;1.42;0.60;;;16.70;53.50;;;;;;5107960;27;45189;-74
2023/03/28 02:12:43;;;;;;;1.83;0.55;;;16.70;53.40;;;;;;5107133;27;48290;-74
2023/03/28 02:15:14;;;;;;;2.83;0.73;;;16.70;53.40;;;;;;5107656;27;45222;-74
2023/03/28 02:17:43;;;;;;;1.52;0.70;;;16.70;53.60;;;;;;5107826;27;45252;-74
2023/03/28 02:20:14;;;;;;;1.42;0.45;;;16.70;54.30;;;;;;5110386;27;45600;-74
2023/03/28 02:22:48;;;;;;;4.32;0.50;;;16.70;53.50;;;;;;5104122;27;46243;-74
2023/03/28 02:25:15;;;;;;;2.28;0.75;;;16.70;53.70;;;;;;5107474;27;45121;-74
2023/03/28 02:27:46;;;;;;;1.55;0.65;;;16.70;53.70;;;;;;5107500;27;45143;-74
2023/03/28 02:30:13;;;;;;;1.15;0.68;;;16.70;53.90;;;;;;5107496;27;45299;-74
2023/03/28 02:32:42;;;;;;;2.60;0.60;;;16.70;53.90;;;;;;5107184;27;47628;-74
2023/03/28 02:35:10;;;;;;;1.58;0.50;;;16.70;53.90;;;;;;5106842;27;46132;-74
2023/03/28 02:37:49;;;;;;;1.70;0.60;;;16.70;54.00;;;;;;5107507;27;45307;-74
2023/03/28 02:40:29;;;;;;;1.58;0.43;;;16.70;53.30;;;;;;5107434;27;45461;-74
2023/03/28 02:43:22;;;;;;;1.90;0.77;;;16.70;53.20;;;;;;5103808;27;45696;-74
2023/03/28 02:46:05;;;;;;;2.13;0.77;;;16.70;53.10;;;;;;5107086;27;45437;-74
2023/03/28 02:49:07;;;;;;;1.95;0.50;;;16.70;53.10;;;;;;5107018;27;45230;-75
2023/03/28 02:51:41;;;;;;;2.38;0.95;;;16.70;53.10;;;;;;5107186;27;45435;-74
2023/03/28 02:54:27;;;;;;;1.55;0.60;;;16.60;53.00;;;;;;5107027;27;47324;-74
2023/03/28 02:57:00;;;;;;;2.45;0.80;;;16.70;53.10;;;;;;5103756;27;45152;-74
2023/03/28 02:59:33;;;;;;;1.13;0.47;;;16.60;53.50;;;;;;5106987;27;45216;-74
2023/03/28 03:02:02;;;;;;;1.63;0.68;;;16.60;53.30;;;;;;5106812;27;45208;-74
2023/03/28 03:04:29;;;;;;;1.67;0.70;;;16.70;53.30;;;;;;5106758;27;47008;-74
2023/03/28 03:06:56;;;;;;;1.55;0.55;;;16.70;53.50;;;;;;5106757;27;45062;-74
2023/03/28 03:09:25;;;;;;;1.88;0.60;;;16.70;53.20;;;;;;5107168;27;45231;-74
2023/03/28 03:11:52;;;;;;;2.35;0.85;;;16.70;53.40;;;;;;5107020;27;45142;-74
2023/03/28 03:14:19;;;;;;;1.17;0.55;;;16.70;53.60;;;;;;5109538;27;47458;-74
2023/03/28 03:16:47;;;;;;;1.77;0.65;;;16.70;53.60;;;;;;5108369;27;45259;-74
2023/03/28 03:19:14;;;;;;;1.15;0.70;;;16.60;53.60;;;;;;5110447;27;45393;-74
2023/03/28 03:21:41;;;;;;;2.65;0.80;;;16.60;53.70;;;;;;5110480;27;45734;-74
2023/03/28 03:24:09;;;;;;;3.40;0.80;;;16.60;53.50;;;;;;5110341;27;47022;-74
2023/03/28 03:26:37;;;;;;;3.30;0.63;;;16.60;53.30;;;;;;5110147;27;45185;-74
2023/03/28 03:29:04;;;;;;;1.15;0.68;;;16.60;52.90;;;;;;5110323;27;45365;-74
2023/03/28 03:31:31;;;;;;;1.40;0.75;;;16.60;53.00;;;;;;5110153;27;45462;-74
2023/03/28 03:34:00;;;;;;;2.72;0.65;;;16.60;52.70;;;;;;5109761;27;46602;-74
2023/03/28 03:36:29;;;;;;;1.00;0.70;;;16.60;52.60;;;;;;5109887;27;45263;-74
2023/03/28 03:38:56;;;;;;;2.60;0.73;;;16.60;52.60;;;;;;5109627;27;45231;-74
2023/03/28 03:41:22;;;;;;;1.45;0.60;;;16.60;52.20;;;;;;5109973;27;45461;-74
2023/03/28 03:43:51;;;;;;;1.15;0.52;;;16.50;52.20;;;;;;5109666;27;47311;-74
2023/03/28 03:46:17;;;;;;;1.30;0.60;;;16.50;52.40;;;;;;5110022;27;45272;-74
2023/03/28 03:48:44;;;;;;;3.38;1.02;;;16.60;52.50;;;;;;5109998;27;45334;-74
2023/03/28 03:51:11;;;;;;;3.60;0.90;;;16.50;52.60;;;;;;5109641;27;45186;-74
2023/03/28 03:53:38;;;;;;;2.17;0.70;;;16.50;53.10;;;;;;5109572;27;45249;-74
2023/03/28 03:56:06;;;;;;;3.75;0.85;;;16.60;53.30;;;;;;5109914;27;45219;-74
2023/03/28 03:58:33;;;;;;;1.33;0.50;;;16.60;53.80;;;;;;5109708;27;45358;-74
2023/03/28 04:01:02;;;;;;;1.42;0.60;;;16.60;53.60;;;;;;5109374;27;45464;-74
2023/03/28 04:03:28;;;;;;;1.75;0.68;;;16.60;53.70;;;;;;5109228;27;46322;-74
2023/03/28 04:05:56;;;;;;;3.50;0.90;;;16.60;53.70;;;;;;5109292;27;45313;-74
2023/03/28 04:08:24;;;;;;;0.95;0.50;;;16.60;53.60;;;;;;5112483;27;45227;-74
2023/03/28 04:10:51;;;;;;;3.15;0.93;;;16.60;53.60;;;;;;5109730;27;45209;-74
2023/03/28 04:13:17;;;;;;;3.17;1.02;;;16.60;52.90;;;;;;5109153;27;45455;-74
2023/03/28 04:15:47;;;;;;;1.58;0.88;;;16.60;52.50;;;;;;5109244;27;45129;-74
2023/03/28 04:18:16;;;;;;;2.20;0.82;;;16.60;53.30;;;;;;5109490;27;45385;-74
2023/03/28 04:20:45;;;;;;;1.42;0.80;;;16.50;50.70;;;;;;5109168;27;45596;-74
2023/03/28 04:23:12;;;;;;;3.10;0.90;;;16.50;50.70;;;;;;5109090;27;46635;-74
2023/03/28 04:25:40;;;;;;;2.08;0.60;;;16.50;50.60;;;;;;5109244;27;45370;-74
2023/03/28 04:28:08;;;;;;;2.47;0.82;;;16.40;50.10;;;;;;5108667;27;45239;-74
2023/03/28 04:30:37;;;;;;;1.70;0.90;;;16.40;50.00;;;;;;5109693;27;45129;-74
2023/03/28 04:33:03;;;;;;;3.00;0.73;;;16.40;49.90;;;;;;5108718;27;46368;-74
2023/03/28 04:35:34;;;;;;;2.17;0.77;;;16.40;49.50;;;;;;5108690;27;45231;-74
2023/03/28 04:38:01;;;;;;;0.90;0.65;;;16.40;49.20;;;;;;5109147;27;45187;-74
2023/03/28 04:40:28;;;;;;;2.92;0.85;;;16.40;49.70;;;;;;5109084;27;45126;-74
2023/03/28 04:42:55;;;;;;;3.67;0.95;;;16.40;49.80;;;;;;5108656;27;47531;-74
2023/03/28 04:45:22;;;;;;;2.90;1.20;;;16.40;50.30;;;;;;5109027;27;45319;-74
2023/03/28 04:47:49;;;;;;;3.67;0.82;;;16.40;50.70;;;;;;5108833;27;45144;-75
2023/03/28 04:50:16;;;;;;;2.47;0.82;;;16.40;50.70;;;;;;5109199;27;45577;-74
2023/03/28 04:52:44;;;;;;;2.58;1.08;;;16.40;50.30;;;;;;5108545;27;47950;-75
2023/03/28 04:55:11;;;;;;;2.70;0.82;;;16.40;50.70;;;;;;5108515;27;45694;-75
2023/03/28 04:57:38;;;;;;;2.40;1.08;;;16.40;48.80;;;;;;5108763;27;45307;-75
2023/03/28 05:00:08;;;;;;;2.53;0.95;;;16.40;48.10;;;;;;5108627;27;45190;-75
2023/03/28 05:02:34;;;;;;;2.45;0.88;;;16.40;47.90;;;;;;5110895;27;46334;-75
2023/03/28 05:05:01;;;;;;;3.65;0.93;;;16.40;47.50;;;;;;5108658;27;45154;-75
2023/03/28 05:07:28;;;;;;;2.40;1.15;;;16.40;47.70;;;;;;5108826;27;45191;-75
2023/03/28 05:09:57;;;;;;;3.75;1.10;;;16.40;47.50;;;;;;5109077;27;45158;-75
2023/03/28 05:12:24;;;;;;;2.00;1.00;;;16.30;47.40;;;;;;5108401;27;45906;-75
2023/03/28 05:14:50;;;;;;;3.10;0.90;;;16.40;47.40;;;;;;5108290;27;45249;-75
2023/03/28 05:17:17;;;;;;;3.60;1.00;;;16.30;46.60;;;;;;5108747;27;45374;-76
2023/03/28 05:19:44;;;;;;;2.33;0.90;;;16.40;46.80;;;;;;5108448;27;45160;-74
2023/03/28 05:22:11;;;;;;;2.15;1.02;;;16.40;46.90;;;;;;5108319;27;47727;-75
2023/03/28 05:24:38;;;;;;;2.38;0.88;;;16.30;46.70;;;;;;5108142;27;45118;-74
2023/03/28 05:27:06;;;;;;;2.80;1.13;;;16.40;46.70;;;;;;5108434;27;45190;-75
2023/03/28 05:29:33;;;;;;;3.38;1.17;;;16.40;47.00;;;;;;5108101;27;45588;-75
2023/03/28 05:31:59;;;;;;;3.00;1.15;;;16.40;47.00;;;;;;5108119;27;47746;-74
2023/03/28 05:34:27;;;;;;;2.97;0.93;;;16.40;47.10;;;;;;5108217;27;45170;-74
2023/03/28 05:36:55;;;;;;;5.15;1.40;;;16.40;47.30;;;;;;5108536;27;45197;-74
2023/03/28 05:39:22;;;;;;;2.65;1.13;;;16.40;47.60;;;;;;5107245;27;45277;-74
2023/03/28 05:41:49;;;;;;;3.55;1.33;;;16.40;47.30;;;;;;5107202;27;46588;-74
2023/03/28 05:44:17;;;;;;;4.25;1.05;;;16.30;46.60;;;;;;5107811;27;45146;-74
2023/03/28 05:46:44;;;;;;;4.40;1.30;;;16.30;46.20;;;;;;5108005;27;45244;-74
2023/03/28 05:49:11;;;;;;;3.15;1.20;;;16.30;46.00;;;;;;5107896;27;45217;-74
2023/03/28 05:51:38;;;;;;;4.30;1.00;;;16.30;46.00;;;;;;5107496;27;45447;-73
2023/03/28 05:54:05;;;;;;;1.67;0.93;;;16.30;45.80;;;;;;5108131;27;45228;-73
2023/03/28 05:56:34;;;;;;;4.07;1.20;;;16.30;46.10;;;;;;5110555;27;45078;-73
2023/03/28 05:59:01;;;;;;;5.55;1.38;;;16.30;45.90;;;;;;5107904;27;45200;-73
2023/03/28 06:01:30;;;;;;;6.97;1.02;;;16.30;45.90;;;;;;5106943;27;48265;-74
2023/03/28 06:03:57;;;;;;;2.83;1.08;;;16.40;46.50;;;;;;5107700;27;46237;-74
2023/03/28 06:06:24;;;;;;;2.05;0.90;;;16.30;46.20;;;;;;5107742;27;45182;-74
2023/03/28 06:08:50;;;;;;;3.45;1.30;;;16.40;48.90;;;;;;5107385;27;45423;-74
2023/03/28 06:11:17;;;;;;;7.13;1.25;;;16.30;48.70;;;;;;5107550;27;48126;-74
2023/03/28 06:13:44;;;;;;;6.40;1.65;;;16.30;47.80;;;;;;5107332;27;45202;-74
2023/03/28 06:16:11;;;;;;;3.45;1.30;;;16.30;47.30;;;;;;5107764;27;45160;-74
2023/03/28 06:18:39;;;;;;;3.67;1.10;;;16.30;47.00;;;;;;5107455;27;45234;-74
2023/03/28 06:21:06;;;;;;;4.18;1.38;;;16.20;46.80;;;;;;5107246;27;46761;-74
2023/03/28 06:23:33;;;;;;;2.85;1.00;;;16.30;46.60;;;;;;5107475;27;45417;-74
2023/03/28 06:26:00;;;;;;;7.97;1.52;;;16.20;46.60;;;;;;5107399;27;45106;-74
2023/03/28 06:28:27;;;;;;;6.90;1.33;;;16.20;46.50;;;;;;5107368;27;45415;-74
2023/03/28 06:30:53;;;;;;;4.05;1.00;;;16.20;46.00;;;;;;5107200;27;47499;-74
2023/03/28 06:33:20;;;;;;;4.90;1.50;;;16.20;46.10;;;;;;5107335;27;45310;-74
2023/03/28 06:35:48;;;;;;;4.60;1.50;;;16.20;45.80;;;;;;5106991;27;45315;-74
2023/03/28 06:38:15;;;;;;;9.07;1.88;;;16.10;45.60;;;;;;5096154;27;45257;-73
2023/03/28 06:40:41;;;;;;;6.63;1.25;;;16.20;47.40;;;;;;5083412;28;48119;-72
2023/03/28 06:43:08;;;;;;;6.90;1.40;;;16.30;52.90;;;;;;5100979;27;45353;-72
2023/03/28 06:45:35;;;;;;;2.92;1.13;;;16.40;52.80;;;;;;5087730;27;45373;-72
2023/03/28 06:48:02;;;;;;;2.58;1.13;;;16.50;53.10;;;;;;5091407;27;45560;-72
2023/03/28 06:50:28;;;;;;;3.38;1.38;;;16.50;52.80;;;;;;5095552;27;46283;-72
2023/03/28 06:52:57;;;;;;;3.97;1.38;;;16.60;52.50;;;;;;5105852;27;45352;-72
2023/03/28 06:55:23;;;;;;;6.50;1.35;;;16.60;52.50;;;;;;5093919;27;45206;-72
2023/03/28 06:57:50;;;;;;;5.20;1.20;;;16.60;52.10;;;;;;5083834;28;45667;-72
2023/03/28 07:00:18;;;;;;;4.28;1.13;;;16.70;52.10;;;;;;5084688;27;45543;-72
2023/03/28 07:02:44;;;;;;;4.32;1.10;;;16.70;51.90;;;;;;5098683;27;46062;-72
2023/03/28 07:05:11;;;;;;;3.47;1.27;;;16.70;51.00;;;;;;5083909;28;45442;-72
2023/03/28 07:07:38;;;;;;;4.28;1.13;;;16.80;51.30;;;;;;5093960;27;45541;-72
2023/03/28 07:10:08;;;;;;;7.20;1.48;;;16.80;51.10;;;;;;5095762;27;48005;-73
2023/03/28 07:12:35;;;;;;;2.85;1.10;;;16.80;51.10;;;;;;5096064;27;45277;-72
2023/03/28 07:15:01;;;;;;;4.10;1.17;;;16.80;51.10;;;;;;5105248;27;45404;-72
2023/03/28 07:17:28;;;;;;;3.67;1.23;;;16.90;51.10;;;;;;5104675;27;45438;-72
2023/03/28 07:19:56;;;;;;;3.20;1.30;;;16.80;50.00;;;;;;5089064;27;48349;-72
2023/03/28 07:22:22;;;;;;;3.88;1.02;;;16.90;49.90;;;;;;5083659;28;45406;-73
2023/03/28 07:24:49;;;;;;;4.18;1.27;;;16.90;49.50;;;;;;5088429;27;45376;-72
2023/03/28 07:27:17;;;;;;;4.80;1.13;;;16.90;49.70;;;;;;5085882;27;45329;-72
2023/03/28 07:29:44;;;;;;;4.80;1.55;;;16.90;49.40;;;;;;5090417;27;48256;-72
2023/03/28 07:32:11;;;;;;;2.20;1.13;;;16.90;49.70;;;;;;5102826;27;45596;-72
2023/03/28 07:34:38;;;;;;;3.72;1.10;;;16.90;49.60;;;;;;5099360;27;45359;-72
2023/03/28 07:37:05;;;;;;;3.67;1.10;;;16.90;49.70;;;;;;5085682;27;45554;-72
2023/03/28 07:39:33;;;;;;;3.38;0.93;;;16.90;49.20;;;;;;5082213;28;47502;-73
2023/03/28 07:42:00;;;;;;;3.55;1.38;;;16.90;49.30;;;;;;5097985;27;45579;-72
2023/03/28 07:44:28;;;;;;;3.95;1.35;;;16.90;49.90;;;;;;5100504;27;45495;-72
2023/03/28 07:46:54;;;;;;;3.72;1.10;;;16.90;49.60;;;;;;5086571;28;45444;-72
2023/03/28 07:49:21;;;;;;;2.60;1.02;;;16.90;49.60;;;;;;5083572;28;46393;-72
2023/03/28 07:51:48;;;;;;;2.55;1.00;;;16.90;49.40;;;;;;5080234;28;45302;-72
2023/03/28 07:54:17;;;;;;;2.88;1.17;;;17.00;49.00;;;;;;5082247;27;45420;-72
2023/03/28 07:56:44;;;;;;;2.17;0.80;;;17.00;49.10;;;;;;5085497;27;45341;-72
2023/03/28 07:59:12;;;;;;;2.65;0.93;;;17.00;48.80;;;;;;5079582;28;46730;-72
2023/03/28 08:01:41;;;;;;;1.40;0.85;;;17.00;48.80;;;;;;5080805;27;45454;-73
2023/03/28 08:04:08;;;;;;;3.50;1.17;;;17.00;48.40;;;;;;5091632;27;45547;-72
2023/03/28 08:06:37;;;;;;;1.77;0.70;;;17.00;48.80;;;;;;5090604;27;45402;-72
2023/03/28 08:09:05;;;;;;;1.63;0.95;;;17.00;49.20;;;;;;5092116;27;47430;-72
2023/03/28 08:11:32;;;;;;;3.22;1.02;;;17.00;49.10;;;;;;5090133;27;45397;-72
2023/03/28 08:13:59;;;;;;;3.28;0.68;;;17.00;48.30;;;;;;5094070;27;45388;-72
2023/03/28 08:16:25;;;;;;;1.95;0.75;;;17.00;48.60;;;;;;5096602;27;45765;-72
2023/03/28 08:18:53;;;;;;;4.05;1.05;;;17.00;48.80;;;;;;5100503;27;45326;-72
2023/03/28 08:21:20;;;;;;;3.35;0.77;;;17.00;49.00;;;;;;5093715;27;45229;-71
2023/03/28 08:23:47;;;;;;;2.58;0.70;;;17.00;49.10;;;;;;5095354;27;45329;-72
2023/03/28 08:26:14;;;;;;;1.70;0.77;;;17.10;50.30;;;;;;5082384;27;45412;-72
2023/03/28 08:28:41;;;;;;;2.38;0.70;;;17.10;48.40;;;;;;5072501;27;47080;-71
2023/03/28 08:31:12;;;;;;;1.85;0.55;;;17.10;48.10;;;;;;5086604;27;45399;-72
2023/03/28 08:33:40;;;;;;;2.30;0.73;;;17.10;47.60;;;;;;5089779;27;45422;-72
2023/03/28 08:36:13;;;;;;;1.65;0.60;;;17.10;47.70;;;;;;5105919;27;45404;-72
2023/03/28 08:38:40;;;;;;;2.05;1.00;;;17.20;47.60;;;;;;5093675;27;45253;-72
2023/03/28 08:41:14;;;;;;;2.30;0.70;;;17.20;47.60;;;;;;5087616;28;47182;-72
2023/03/28 08:43:57;;;;;;;2.58;0.70;;;17.20;48.00;;;;;;5093612;27;45359;-72
2023/03/28 08:46:28;;;;;;;1.73;0.68;;;17.20;48.00;;;;;;5095262;27;45328;-72
2023/03/28 08:48:55;;;;;;;1.70;0.45;;;17.20;47.80;;;;;;5101149;27;47978;-72
2023/03/28 08:51:27;;;;;;;1.55;0.52;;;17.20;48.30;;;;;;5105143;27;45402;-73
2023/03/28 08:54:03;;;;;;;3.08;0.90;;;17.20;48.10;;;;;;5097231;27;45365;-73
2023/03/28 08:56:32;;;;;;;2.80;1.20;;;17.30;48.00;;;;;;5084647;28;45457;-72
2023/03/28 08:59:08;;;;;;;1.60;0.70;;;17.30;47.70;;;;;;5084935;28;47452;-73
2023/03/28 09:01:35;;;;;;;1.20;0.45;;;17.30;48.10;;;;;;5077801;28;45314;-72
2023/03/28 09:04:03;;;;;;;1.30;0.60;;;17.30;48.40;;;;;;5075574;27;45378;-73
2023/03/28 09:06:37;;;;;;;2.63;0.80;;;17.30;48.30;;;;;;5088575;27;45475;-72
2023/03/28 09:09:32;;;;;;;2.22;0.93;;;17.30;48.70;;;;;;5083828;27;46937;-72
2023/03/28 09:12:07;;;;;;;0.73;0.50;;;17.30;49.50;;;;;;5077201;27;45215;-72
2023/03/28 09:15:07;;;;;;;1.58;0.70;;;17.30;50.20;;;;;;5092438;27;45422;-72
2023/03/28 09:17:43;;;;;;;2.03;0.70;;;17.20;49.90;;;;;;5084657;28;45467;-72
2023/03/28 09:20:18;;;;;;;2.20;0.70;;;17.20;50.70;;;;;;5084887;28;46993;-73
2023/03/28 09:23:00;;;;;;;2.10;0.70;;;17.20;50.80;;;;;;5093973;27;45383;-72
2023/03/28 09:25:35;;;;;;;1.42;0.68;;;17.30;52.00;;;;;;5085163;27;45508;-72
2023/03/28 09:28:12;;;;;;;1.90;0.73;;;17.30;50.80;;;;;;5084889;28;45416;-72
2023/03/28 09:30:43;;;;;;;3.47;0.55;;;17.30;50.60;;;;;;5077328;27;47348;-72
2023/03/28 09:33:14;;;;;;;2.97;0.70;;;17.30;50.60;;;;;;5087192;27;45446;-73
2023/03/28 09:35:42;;;;;;;1.27;0.50;;;17.20;50.60;;;;;;5100651;27;45656;-72
2023/03/28 09:38:17;;;;;;;2.05;0.60;;;17.20;50.30;;;;;;5092465;27;45342;-72
2023/03/28 09:40:46;;;;;;;2.15;0.70;;;17.20;51.00;;;;;;5090758;27;45402;-72
2023/03/28 09:43:19;;;;;;;2.17;0.47;;;17.20;50.80;;;;;;5095842;27;45347;-73
2023/03/28 09:45:53;;;;;;;2.08;0.60;;;17.30;50.90;;;;;;5100061;27;45226;-73
2023/03/28 09:48:23;;;;;;;3.40;1.02;;;17.30;50.70;;;;;;5094723;27;45295;-72
2023/03/28 09:50:51;;;;;;;1.13;0.40;;;17.20;51.10;;;;;;5076863;28;45721;-73
2023/03/28 09:53:25;;;;;;;3.85;0.55;;;17.30;50.90;;;;;;5090043;27;45614;-73
2023/03/28 09:55:53;;;;;;;0.70;0.40;;;17.20;50.90;;;;;;5079391;28;45285;-72
2023/03/28 09:58:19;;;;;;;1.58;0.50;;;17.20;51.40;;;;;;5084005;28;45446;-72
2023/03/28 10:00:48;;;;;;;1.15;0.52;;;17.20;51.40;;;;;;5088906;27;47202;-73
2023/03/28 10:03:28;;;;;;;0.85;0.50;;;17.20;51.40;;;;;;5094534;27;45437;-73
2023/03/28 10:05:56;;;;;;;1.17;0.60;;;17.20;51.40;;;;;;5098623;27;45281;-72
2023/03/28 10:08:27;;;;;;;0.65;0.40;;;17.20;51.40;;;;;;5094294;27;45343;-73
2023/03/28 10:11:00;;;;;;;1.88;0.52;;;17.20;51.40;;;;;;5084156;28;47979;-73
2023/03/28 10:13:27;;;;;;;1.67;0.50;;;17.20;51.40;;;;;;5088270;27;45497;-73
2023/03/28 10:15:56;;;;;;;1.08;0.47;;;17.20;51.40;;;;;;5082545;28;45310;-73
2023/03/28 10:18:27;;;;;;;0.95;0.40;;;17.20;51.40;;;;;;5091131;27;45436;-73
2023/03/28 10:20:54;;;;;;;0.85;0.47;;;17.20;51.40;;;;;;5083486;28;46529;-73
2023/03/28 10:23:23;;;;;;;0.28;0.28;;;17.20;51.40;;;;;;5089806;27;45419;-73
2023/03/28 10:25:55;;;;;;;2.38;0.32;;;17.20;51.40;;;;;;5089099;27;45371;-72
2023/03/28 10:28:29;;;;;;;1.08;0.47;;;17.20;51.40;;;;;;5094788;27;45472;-72
2023/03/28 10:31:00;;;;;;;0.57;0.30;;;17.20;51.40;;;;;;5087837;27;47067;-73
2023/03/28 10:33:31;;;;;;;1.40;0.50;;;17.20;51.40;;;;;;5085852;27;45382;-73
2023/03/28 10:36:00;;;;;;;1.70;0.40;;;17.20;51.40;;;;;;5085803;27;45393;-73
2023/03/28 10:38:32;;;;;;;1.98;0.40;;;17.20;51.40;;;;;;5096001;27;45210;-73
2023/03/28 10:41:02;;;;;;;3.13;0.47;;;17.20;51.40;;;;;;5097931;27;46390;-73
2023/03/28 10:43:35;;;;;;;2.08;0.47;;;17.20;51.40;;;;;;5087069;27;45242;-73
2023/03/28 10:46:07;;;;;;;0.77;0.32;;;17.20;51.40;;;;;;5088787;27;45269;-73
2023/03/28 10:48:36;;;;;;;1.52;0.50;;;17.10;51.40;;;;;;5091625;27;45452;-72
2023/03/28 10:51:07;;;;;;;0.88;0.55;;;17.20;51.40;;;;;;5091133;27;45855;-73
2023/03/28 10:54:05;;;;;;;1.08;0.50;;;17.20;51.40;;;;;;5079995;27;45420;-74
2023/03/28 10:56:37;;;;;;;0.35;0.35;;;17.20;51.40;;;;;;5062947;27;45419;-73
2023/03/28 10:59:21;;;;;;;2.90;0.32;;;17.20;51.40;;;;;;5083967;28;45992;-72
2023/03/28 11:02:00;;;;;;;1.38;0.57;;;17.20;51.50;;;;;;5095753;27;46290;-73
2023/03/28 11:04:50;;;;;;;0.75;0.30;;;17.20;51.40;;;;;;5094756;27;45999;-73
2023/03/28 11:07:26;;;;;;;0.80;0.32;;;17.20;51.40;;;;;;5104708;27;45343;-73
2023/03/28 11:09:59;;;;;;;1.13;0.40;;;17.20;51.40;;;;;;5085297;27;45305;-73
2023/03/28 11:12:36;;;;;;;0.65;0.30;;;17.20;51.40;;;;;;5086200;27;47389;-73
2023/03/28 11:15:09;;;;;;;1.20;0.47;;;17.30;51.50;;;;;;5086946;27;45472;-73
2023/03/28 11:17:46;;;;;;;0.68;0.30;;;17.30;51.40;;;;;;5087239;27;45380;-73
2023/03/28 11:20:39;;;;;;;1.55;0.25;;;17.30;51.60;;;;;;5092166;27;45436;-73
2023/03/28 11:23:19;;;;;;;3.22;0.80;;;17.30;52.70;;;;;;5093492;27;47313;-69
2023/03/28 11:25:55;;;;;;;1.83;0.63;;;17.40;52.70;;;;;;5085512;27;45338;-73
2023/03/28 11:28:32;;;;;;;1.60;0.47;;;17.40;55.30;;;;;;5105644;27;45411;-73
2023/03/28 11:31:00;;;;;;;1.30;0.68;;;17.40;52.80;;;;;;5087888;27;45514;-73
2023/03/28 11:33:32;;;;;;;1.77;0.50;;;17.40;52.40;;;;;;5084447;28;45414;-74
2023/03/28 11:36:04;;;;;;;0.85;0.45;;;17.50;52.50;;;;;;5086300;27;46145;-74
2023/03/28 11:38:35;;;;;;;0.85;0.32;;;17.50;53.00;;;;;;5085819;27;45270;-73
2023/03/28 11:41:05;;;;;;;1.05;0.40;;;17.50;52.40;;;;;;5091987;27;45412;-73
2023/03/28 11:43:38;;;;;;;0.77;0.40;;;17.50;52.70;;;;;;5094918;27;47973;-73
2023/03/28 11:46:08;;;;;;;3.78;0.60;;;17.50;52.30;;;;;;5108609;27;45249;-73
2023/03/28 11:48:41;;;;;;;1.30;0.45;;;17.50;53.00;;;;;;5101548;27;45287;-73
2023/03/28 11:51:12;;;;;;;2.72;0.63;;;17.50;52.90;;;;;;5096712;27;45365;-73
2023/03/28 11:53:44;;;;;;;1.60;0.40;;;17.50;53.20;;;;;;5107327;27;45488;-73
2023/03/28 11:56:23;;;;;;;0.50;0.30;;;17.50;53.00;;;;;;5108846;27;45896;-73
2023/03/28 11:58:59;;;;;;;1.33;0.43;;;17.50;52.90;;;;;;5109648;27;45216;-73
2023/03/28 12:01:30;;;;;;;1.95;0.55;;;17.40;53.00;;;;;;5099953;27;45234;-73
2023/03/28 12:04:03;;;;;;;2.33;0.40;;;17.50;53.30;;;;;;5108960;27;47288;-73
2023/03/28 12:06:35;;;;;;;0.57;0.20;;;17.50;53.40;;;;;;5108839;27;45207;-73
2023/03/28 12:09:10;;;;;;;1.13;0.47;;;17.50;53.70;;;;;;5109054;27;45225;-73
2023/03/28 12:11:41;;;;;;;1.38;0.30;;;17.50;54.00;;;;;;5109161;27;45522;-73
2023/03/28 12:14:29;;;;;;;1.13;0.28;;;17.50;54.10;;;;;;5100219;27;48374;-73
2023/03/28 12:16:59;;;;;;;1.70;0.45;;;17.50;53.80;;;;;;5110792;27;45277;-73
2023/03/28 12:19:32;;;;;;;0.65;0.30;;;17.50;54.00;;;;;;5097139;27;45389;-73
2023/03/28 12:22:03;;;;;;;0.73;0.25;;;17.50;54.40;;;;;;5087830;28;45322;-73
2023/03/28 12:24:40;;;;;;;0.98;0.30;;;17.50;54.30;;;;;;5095799;27;47634;-73
2023/03/28 12:27:15;;;;;;;0.90;0.30;;;17.50;54.60;;;;;;5087958;28;46354;-73
2023/03/28 12:29:47;;;;;;;0.73;0.30;;;17.50;54.60;;;;;;5088125;28;45454;-73
2023/03/28 12:32:26;;;;;;;0.43;0.20;;;17.50;54.80;;;;;;5087977;28;45301;-73
2023/03/28 12:35:00;;;;;;;0.65;0.30;;;17.50;54.90;;;;;;5087876;28;47165;-73
2023/03/28 12:37:32;;;;;;;1.05;0.50;;;17.50;56.00;;;;;;5087833;28;45276;-73
2023/03/28 12:40:11;;;;;;;1.13;0.35;;;17.50;54.80;;;;;;5081324;27;45424;-73
2023/03/28 12:42:40;;;;;;;1.52;0.35;;;17.50;54.60;;;;;;5067526;28;45551;-73
2023/03/28 12:45:13;;;;;;;0.60;0.30;;;17.50;54.30;;;;;;5082968;28;47235;-74
2023/03/28 12:47:45;;;;;;;1.30;0.70;;;17.50;54.30;;;;;;5087967;28;45156;-74
2023/03/28 12:50:17;;;;;;;1.48;0.68;;;17.50;54.40;;;;;;5087573;27;45175;-73
2023/03/28 12:52:45;;;;;;;2.72;0.40;;;17.50;55.60;;;;;;5087846;28;45398;-73
2023/03/28 12:55:43;;;;;;;1.25;0.50;;;17.50;54.40;;;;;;5087404;28;46351;-73
2023/03/28 12:58:26;;;;;;;1.63;0.52;;;17.60;55.00;;;;;;5087894;28;45193;-74
2023/03/28 13:01:20;;;;;;;1.30;0.50;;;17.60;54.80;;;;;;5088024;28;45473;-73
2023/03/28 13:03:57;;;;;;;2.15;0.60;;;17.60;54.30;;;;;;5087842;28;45247;-73
2023/03/28 13:06:31;;;;;;;0.70;0.40;;;17.60;54.50;;;;;;5087852;28;47087;-73
2023/03/28 13:09:23;;;;;;;0.30;0.30;;;17.60;55.00;;;;;;5087314;28;45878;-72